sensor_id;sensor_type;location;lat;lon;timestamp;temperature;humidity
15615;DHT22;7907;51.368;6.730;2022-07-10T00:00:13;15.60;99.90
15615;DHT22;7907;51.368;6.730;2022-07-10T00:02:51;15.60;99.90
15615;DHT22;7907;51.368;6.730;2022-07-10T00:05:25;15.60;99.90
15615;DHT22;7907;51.368;6.730;2022-07-10T00:08:03;15.60;99.90
15615;DHT22;7907;51.368;6.730;2022-07-10T00:10:30;15.60;99.90
15615;DHT22;7907;51.368;6.730;2022-07-10T00:12:58;15.60;99.90
15615;DHT22;7907;51.368;6.730;2022-07-10T00:15:25;15.60;99.90
15615;DHT22;7907;51.368;6.730;2022-07-10T00:17:58;15.50;99.90
15615;DHT22;7907;51.368;6.730;2022-07-10T00:20:27;15.60;99.90
15615;DHT22;7907;51.368;6.730;2022-07-10T00:22:54;15.60;99.90
15615;DHT22;7907;51.368;6.730;2022-07-10T00:25:20;15.60;99.90
15615;DHT22;7907;51.368;6.730;2022-07-10T00:27:47;15.70;99.90
15615;DHT22;7907;51.368;6.730;2022-07-10T00:30:17;15.70;99.90
15615;DHT22;7907;51.368;6.730;2022-07-10T00:32:46;15.70;99.90
15615;DHT22;7907;51.368;6.730;2022-07-10T00:35:14;15.70;99.90
15615;DHT22;7907;51.368;6.730;2022-07-10T00:37:42;15.70;99.90
15615;DHT22;7907;51.368;6.730;2022-07-10T00:40:09;15.70;99.90
15615;DHT22;7907;51.368;6.730;2022-07-10T00:42:36;15.70;99.90
15615;DHT22;7907;51.368;6.730;2022-07-10T00:45:06;15.70;99.90
15615;DHT22;7907;51.368;6.730;2022-07-10T00:47:33;15.70;99.90
15615;DHT22;7907;51.368;6.730;2022-07-10T00:50:00;15.70;99.90
15615;DHT22;7907;51.368;6.730;2022-07-10T00:52:29;15.70;99.90
15615;DHT22;7907;51.368;6.730;2022-07-10T00:57:36;15.70;99.90
15615;DHT22;7907;51.368;6.730;2022-07-10T01:00:04;15.70;99.90
15615;DHT22;7907;51.368;6.730;2022-07-10T01:02:31;15.70;99.90
15615;DHT22;7907;51.368;6.730;2022-07-10T01:04:59;15.70;99.90
15615;DHT22;7907;51.368;6.730;2022-07-10T01:07:29;15.70;99.90
15615;DHT22;7907;51.368;6.730;2022-07-10T01:09:56;15.70;99.90
15615;DHT22;7907;51.368;6.730;2022-07-10T01:12:27;15.70;99.90
15615;DHT22;7907;51.368;6.730;2022-07-10T01:14:54;15.70;99.90
15615;DHT22;7907;51.368;6.730;2022-07-10T01:17:21;15.70;99.90
15615;DHT22;7907;51.368;6.730;2022-07-10T01:19:49;15.70;99.90
15615;DHT22;7907;51.368;6.730;2022-07-10T01:22:18;15.60;99.90
15615;DHT22;7907;51.368;6.730;2022-07-10T01:24:45;15.60;99.90
15615;DHT22;7907;51.368;6.730;2022-07-10T01:27:17;15.60;99.90
15615;DHT22;7907;51.368;6.730;2022-07-10T01:29:47;15.60;99.90
15615;DHT22;7907;51.368;6.730;2022-07-10T01:32:15;15.60;99.90
15615;DHT22;7907;51.368;6.730;2022-07-10T01:34:45;15.60;99.90
15615;DHT22;7907;51.368;6.730;2022-07-10T01:37:14;15.50;99.90
15615;DHT22;7907;51.368;6.730;2022-07-10T01:39:42;15.60;99.90
15615;DHT22;7907;51.368;6.730;2022-07-10T01:42:10;15.50;99.90
15615;DHT22;7907;51.368;6.730;2022-07-10T01:44:37;15.50;99.90
15615;DHT22;7907;51.368;6.730;2022-07-10T01:47:04;15.50;99.90
15615;DHT22;7907;51.368;6.730;2022-07-10T01:49:31;15.50;99.90
15615;DHT22;7907;51.368;6.730;2022-07-10T01:52:03;15.50;99.90
15615;DHT22;7907;51.368;6.730;2022-07-10T01:57:21;15.50;99.90
15615;DHT22;7907;51.368;6.730;2022-07-10T01:59:50;15.40;99.90
15615;DHT22;7907;51.368;6.730;2022-07-10T02:02:17;15.40;99.90
15615;DHT22;7907;51.368;6.730;2022-07-10T02:04:44;15.40;99.90
15615;DHT22;7907;51.368;6.730;2022-07-10T02:07:14;15.30;99.90
15615;DHT22;7907;51.368;6.730;2022-07-10T02:09:41;15.30;99.90
15615;DHT22;7907;51.368;6.730;2022-07-10T02:12:08;15.30;99.90
15615;DHT22;7907;51.368;6.730;2022-07-10T02:14:38;15.20;99.90
15615;DHT22;7907;51.368;6.730;2022-07-10T02:17:07;15.20;99.90
15615;DHT22;7907;51.368;6.730;2022-07-10T02:19:34;15.10;99.90
15615;DHT22;7907;51.368;6.730;2022-07-10T02:22:02;15.10;99.90
15615;DHT22;7907;51.368;6.730;2022-07-10T02:24:40;15.10;99.90
15615;DHT22;7907;51.368;6.730;2022-07-10T02:27:08;15.10;99.90
15615;DHT22;7907;51.368;6.730;2022-07-10T02:29:35;15.00;99.90
15615;DHT22;7907;51.368;6.730;2022-07-10T02:32:05;15.00;99.90
15615;DHT22;7907;51.368;6.730;2022-07-10T02:34:33;15.00;99.90
15615;DHT22;7907;51.368;6.730;2022-07-10T02:37:03;14.90;99.90
15615;DHT22;7907;51.368;6.730;2022-07-10T02:39:30;14.90;99.90
15615;DHT22;7907;51.368;6.730;2022-07-10T02:42:01;14.90;99.90
15615;DHT22;7907;51.368;6.730;2022-07-10T02:44:31;14.90;99.90
15615;DHT22;7907;51.368;6.730;2022-07-10T02:46:58;14.90;99.90
15615;DHT22;7907;51.368;6.730;2022-07-10T02:49:29;14.90;99.90
15615;DHT22;7907;51.368;6.730;2022-07-10T02:52:05;14.90;99.90
15615;DHT22;7907;51.368;6.730;2022-07-10T02:57:29;14.80;99.90
15615;DHT22;7907;51.368;6.730;2022-07-10T02:59:56;14.80;99.90
15615;DHT22;7907;51.368;6.730;2022-07-10T03:02:32;14.80;99.90
15615;DHT22;7907;51.368;6.730;2022-07-10T03:05:00;14.70;99.90
15615;DHT22;7907;51.368;6.730;2022-07-10T03:07:29;14.70;99.90
15615;DHT22;7907;51.368;6.730;2022-07-10T03:09:56;14.70;99.90
15615;DHT22;7907;51.368;6.730;2022-07-10T03:12:23;14.70;99.90
15615;DHT22;7907;51.368;6.730;2022-07-10T03:14:50;14.70;99.90
15615;DHT22;7907;51.368;6.730;2022-07-10T03:17:17;14.70;99.90
15615;DHT22;7907;51.368;6.730;2022-07-10T03:19:44;14.60;99.90
15615;DHT22;7907;51.368;6.730;2022-07-10T03:22:12;14.60;99.90
15615;DHT22;7907;51.368;6.730;2022-07-10T03:24:39;14.60;99.90
15615;DHT22;7907;51.368;6.730;2022-07-10T03:27:06;14.60;99.90
15615;DHT22;7907;51.368;6.730;2022-07-10T03:29:34;14.60;99.90
15615;DHT22;7907;51.368;6.730;2022-07-10T03:32:04;14.50;99.90
15615;DHT22;7907;51.368;6.730;2022-07-10T03:34:31;14.50;99.90
15615;DHT22;7907;51.368;6.730;2022-07-10T03:37:04;14.50;99.90
15615;DHT22;7907;51.368;6.730;2022-07-10T03:39:46;14.50;99.90
15615;DHT22;7907;51.368;6.730;2022-07-10T03:42:16;14.50;99.90
15615;DHT22;7907;51.368;6.730;2022-07-10T03:44:53;14.50;99.90
15615;DHT22;7907;51.368;6.730;2022-07-10T03:47:24;14.50;99.90
15615;DHT22;7907;51.368;6.730;2022-07-10T03:49:55;14.60;99.90
15615;DHT22;7907;51.368;6.730;2022-07-10T03:52:32;14.60;99.90
15615;DHT22;7907;51.368;6.730;2022-07-10T03:55:16;14.60;99.90
15615;DHT22;7907;51.368;6.730;2022-07-10T03:58:10;14.60;99.90
15615;DHT22;7907;51.368;6.730;2022-07-10T04:00:41;14.60;99.90
15615;DHT22;7907;51.368;6.730;2022-07-10T04:03:08;14.60;99.90
15615;DHT22;7907;51.368;6.730;2022-07-10T04:05:39;14.60;99.90
15615;DHT22;7907;51.368;6.730;2022-07-10T04:08:08;14.50;99.90
15615;DHT22;7907;51.368;6.730;2022-07-10T04:10:37;14.50;99.90
15615;DHT22;7907;51.368;6.730;2022-07-10T04:13:08;14.60;99.90
15615;DHT22;7907;51.368;6.730;2022-07-10T04:15:36;14.60;99.90
15615;DHT22;7907;51.368;6.730;2022-07-10T04:18:15;14.60;99.90
15615;DHT22;7907;51.368;6.730;2022-07-10T04:20:43;14.60;99.90
15615;DHT22;7907;51.368;6.730;2022-07-10T04:23:10;14.60;99.90
15615;DHT22;7907;51.368;6.730;2022-07-10T04:25:41;14.60;99.90
15615;DHT22;7907;51.368;6.730;2022-07-10T04:28:10;14.60;99.90
15615;DHT22;7907;51.368;6.730;2022-07-10T04:30:39;14.60;99.90
15615;DHT22;7907;51.368;6.730;2022-07-10T04:33:06;14.60;99.90
15615;DHT22;7907;51.368;6.730;2022-07-10T04:35:33;14.60;99.90
15615;DHT22;7907;51.368;6.730;2022-07-10T04:38:03;14.60;99.90
15615;DHT22;7907;51.368;6.730;2022-07-10T04:40:30;14.70;99.90
15615;DHT22;7907;51.368;6.730;2022-07-10T04:43:01;14.70;99.90
15615;DHT22;7907;51.368;6.730;2022-07-10T04:45:29;14.70;99.90
15615;DHT22;7907;51.368;6.730;2022-07-10T04:47:59;14.80;99.90
15615;DHT22;7907;51.368;6.730;2022-07-10T04:50:28;14.80;99.90
15615;DHT22;7907;51.368;6.730;2022-07-10T04:52:57;14.80;99.90
15615;DHT22;7907;51.368;6.730;2022-07-10T04:55:38;14.90;99.90
15615;DHT22;7907;51.368;6.730;2022-07-10T04:58:06;14.90;99.90
15615;DHT22;7907;51.368;6.730;2022-07-10T05:00:33;14.90;99.90
15615;DHT22;7907;51.368;6.730;2022-07-10T05:03:00;15.00;99.90
15615;DHT22;7907;51.368;6.730;2022-07-10T05:05:27;15.10;99.90
15615;DHT22;7907;51.368;6.730;2022-07-10T05:07:54;15.20;99.90
15615;DHT22;7907;51.368;6.730;2022-07-10T05:10:24;15.20;99.90
15615;DHT22;7907;51.368;6.730;2022-07-10T05:13:03;15.30;99.90
15615;DHT22;7907;51.368;6.730;2022-07-10T05:15:45;15.40;99.90
15615;DHT22;7907;51.368;6.730;2022-07-10T05:18:15;15.40;99.90
15615;DHT22;7907;51.368;6.730;2022-07-10T05:20:46;15.60;99.90
15615;DHT22;7907;51.368;6.730;2022-07-10T05:23:23;15.70;99.90
15615;DHT22;7907;51.368;6.730;2022-07-10T05:25:50;15.70;99.90
15615;DHT22;7907;51.368;6.730;2022-07-10T05:28:18;15.90;99.90
15615;DHT22;7907;51.368;6.730;2022-07-10T05:30:49;15.90;99.90
15615;DHT22;7907;51.368;6.730;2022-07-10T05:33:25;16.00;99.90
15615;DHT22;7907;51.368;6.730;2022-07-10T05:36:01;16.00;99.90
15615;DHT22;7907;51.368;6.730;2022-07-10T05:38:30;16.00;99.90
15615;DHT22;7907;51.368;6.730;2022-07-10T05:40:59;16.10;99.90
15615;DHT22;7907;51.368;6.730;2022-07-10T05:43:30;16.20;99.90
15615;DHT22;7907;51.368;6.730;2022-07-10T05:45:59;16.30;99.90
15615;DHT22;7907;51.368;6.730;2022-07-10T05:48:26;16.30;99.90
15615;DHT22;7907;51.368;6.730;2022-07-10T05:51:04;16.30;99.90
15615;DHT22;7907;51.368;6.730;2022-07-10T05:53:31;16.30;99.90
15615;DHT22;7907;51.368;6.730;2022-07-10T05:56:18;16.30;99.90
15615;DHT22;7907;51.368;6.730;2022-07-10T05:59:02;16.20;99.90
15615;DHT22;7907;51.368;6.730;2022-07-10T06:04:24;16.00;99.90
15615;DHT22;7907;51.368;6.730;2022-07-10T06:06:58;15.90;99.90
15615;DHT22;7907;51.368;6.730;2022-07-10T06:09:25;15.90;99.90
15615;DHT22;7907;51.368;6.730;2022-07-10T06:11:53;15.80;99.90
15615;DHT22;7907;51.368;6.730;2022-07-10T06:14:32;15.80;99.90
15615;DHT22;7907;51.368;6.730;2022-07-10T06:17:16;15.80;99.90
15615;DHT22;7907;51.368;6.730;2022-07-10T06:19:45;15.70;99.90
15615;DHT22;7907;51.368;6.730;2022-07-10T06:22:17;15.70;99.90
15615;DHT22;7907;51.368;6.730;2022-07-10T06:25:01;15.80;99.90
15615;DHT22;7907;51.368;6.730;2022-07-10T06:27:28;15.80;99.90
15615;DHT22;7907;51.368;6.730;2022-07-10T06:30:01;15.80;99.90
15615;DHT22;7907;51.368;6.730;2022-07-10T06:32:43;15.90;99.90
15615;DHT22;7907;51.368;6.730;2022-07-10T06:38:17;15.90;99.90
15615;DHT22;7907;51.368;6.730;2022-07-10T06:40:52;16.00;99.90
15615;DHT22;7907;51.368;6.730;2022-07-10T06:43:21;16.00;99.90
15615;DHT22;7907;51.368;6.730;2022-07-10T06:45:50;16.00;99.90
15615;DHT22;7907;51.368;6.730;2022-07-10T06:51:11;16.10;99.90
15615;DHT22;7907;51.368;6.730;2022-07-10T06:53:52;16.20;99.90
15615;DHT22;7907;51.368;6.730;2022-07-10T06:56:27;16.20;99.90
15615;DHT22;7907;51.368;6.730;2022-07-10T07:02:01;16.30;99.90
15615;DHT22;7907;51.368;6.730;2022-07-10T07:04:29;16.40;99.90
15615;DHT22;7907;51.368;6.730;2022-07-10T07:07:07;16.40;99.90
15615;DHT22;7907;51.368;6.730;2022-07-10T07:09:43;16.40;99.90
15615;DHT22;7907;51.368;6.730;2022-07-10T07:21:53;16.60;99.90
15615;DHT22;7907;51.368;6.730;2022-07-10T07:24:51;16.60;99.90
15615;DHT22;7907;51.368;6.730;2022-07-10T07:27:24;16.60;99.90
15615;DHT22;7907;51.368;6.730;2022-07-10T07:29:52;16.60;99.90
15615;DHT22;7907;51.368;6.730;2022-07-10T07:35:24;16.60;99.90
15615;DHT22;7907;51.368;6.730;2022-07-10T07:40:53;16.70;99.90
15615;DHT22;7907;51.368;6.730;2022-07-10T07:46:11;16.60;99.90
15615;DHT22;7907;51.368;6.730;2022-07-10T07:48:39;16.50;99.90
15615;DHT22;7907;51.368;6.730;2022-07-10T07:51:07;16.40;99.90
15615;DHT22;7907;51.368;6.730;2022-07-10T07:53:34;16.40;99.90
15615;DHT22;7907;51.368;6.730;2022-07-10T07:56:03;16.40;99.90
15615;DHT22;7907;51.368;6.730;2022-07-10T07:58:30;16.50;99.90
15615;DHT22;7907;51.368;6.730;2022-07-10T08:00:58;16.60;99.90
15615;DHT22;7907;51.368;6.730;2022-07-10T08:04:39;16.60;99.90
15615;DHT22;7907;51.368;6.730;2022-07-10T08:06:23;16.70;99.90
15615;DHT22;7907;51.368;6.730;2022-07-10T08:09:04;16.70;99.90
15615;DHT22;7907;51.368;6.730;2022-07-10T08:11:38;16.70;99.90
15615;DHT22;7907;51.368;6.730;2022-07-10T08:14:14;16.70;99.90
15615;DHT22;7907;51.368;6.730;2022-07-10T08:16:44;16.70;99.90
15615;DHT22;7907;51.368;6.730;2022-07-10T08:19:11;16.60;99.90
15615;DHT22;7907;51.368;6.730;2022-07-10T08:21:38;16.50;99.90
15615;DHT22;7907;51.368;6.730;2022-07-10T08:36:05;16.90;99.90
15615;DHT22;7907;51.368;6.730;2022-07-10T08:38:44;16.90;99.90
15615;DHT22;7907;51.368;6.730;2022-07-10T08:50:51;17.10;99.90
15615;DHT22;7907;51.368;6.730;2022-07-10T08:53:45;17.30;99.90
15615;DHT22;7907;51.368;6.730;2022-07-10T08:56:48;17.40;99.90
15615;DHT22;7907;51.368;6.730;2022-07-10T08:59:24;17.50;99.90
15615;DHT22;7907;51.368;6.730;2022-07-10T09:02:07;17.60;99.90
15615;DHT22;7907;51.368;6.730;2022-07-10T09:07:40;17.70;99.90
15615;DHT22;7907;51.368;6.730;2022-07-10T09:10:14;17.80;99.90
15615;DHT22;7907;51.368;6.730;2022-07-10T09:12:55;17.80;99.90
15615;DHT22;7907;51.368;6.730;2022-07-10T09:15:26;17.80;99.90
15615;DHT22;7907;51.368;6.730;2022-07-10T09:21:37;17.80;99.90
15615;DHT22;7907;51.368;6.730;2022-07-10T09:24:07;17.70;99.90
15615;DHT22;7907;51.368;6.730;2022-07-10T09:26:58;17.60;99.90
15615;DHT22;7907;51.368;6.730;2022-07-10T09:29:48;17.30;99.90
15615;DHT22;7907;51.368;6.730;2022-07-10T09:32:20;17.30;99.90
15615;DHT22;7907;51.368;6.730;2022-07-10T09:41:30;17.30;99.90
15615;DHT22;7907;51.368;6.730;2022-07-10T09:44:09;17.30;99.90
15615;DHT22;7907;51.368;6.730;2022-07-10T09:47:30;17.50;99.90
15615;DHT22;7907;51.368;6.730;2022-07-10T09:53:24;17.40;99.90
15615;DHT22;7907;51.368;6.730;2022-07-10T09:55:56;17.40;99.90
15615;DHT22;7907;51.368;6.730;2022-07-10T10:00:01;17.50;99.90
15615;DHT22;7907;51.368;6.730;2022-07-10T10:25:44;18.00;99.90
15615;DHT22;7907;51.368;6.730;2022-07-10T10:28:47;18.00;99.90
15615;DHT22;7907;51.368;6.730;2022-07-10T10:31:45;18.00;99.90
15615;DHT22;7907;51.368;6.730;2022-07-10T10:34:41;18.10;99.90
15615;DHT22;7907;51.368;6.730;2022-07-10T10:37:36;18.40;99.90
15615;DHT22;7907;51.368;6.730;2022-07-10T10:40:29;18.60;99.90
15615;DHT22;7907;51.368;6.730;2022-07-10T10:43:16;18.60;99.90
15615;DHT22;7907;51.368;6.730;2022-07-10T10:46:23;18.70;99.90
15615;DHT22;7907;51.368;6.730;2022-07-10T10:49:09;18.90;99.90
15615;DHT22;7907;51.368;6.730;2022-07-10T10:51:59;19.10;99.90
15615;DHT22;7907;51.368;6.730;2022-07-10T10:54:59;19.20;99.90
15615;DHT22;7907;51.368;6.730;2022-07-10T10:57:40;19.20;99.90
15615;DHT22;7907;51.368;6.730;2022-07-10T11:00:38;19.20;99.90
15615;DHT22;7907;51.368;6.730;2022-07-10T11:03:23;19.00;99.90
15615;DHT22;7907;51.368;6.730;2022-07-10T11:22:52;18.50;99.90
15615;DHT22;7907;51.368;6.730;2022-07-10T11:25:44;18.50;99.90
15615;DHT22;7907;51.368;6.730;2022-07-10T11:29:07;18.60;99.90
15615;DHT22;7907;51.368;6.730;2022-07-10T11:31:40;18.70;99.90
15615;DHT22;7907;51.368;6.730;2022-07-10T11:34:13;18.80;99.90
15615;DHT22;7907;51.368;6.730;2022-07-10T11:43:22;19.50;99.90
15615;DHT22;7907;51.368;6.730;2022-07-10T11:45:52;19.80;99.90
15615;DHT22;7907;51.368;6.730;2022-07-10T11:48:25;19.80;99.90
15615;DHT22;7907;51.368;6.730;2022-07-10T11:54:00;19.40;99.90
15615;DHT22;7907;51.368;6.730;2022-07-10T11:56:41;19.30;99.90
15615;DHT22;7907;51.368;6.730;2022-07-10T12:44:02;19.10;99.90
15615;DHT22;7907;51.368;6.730;2022-07-10T12:46:59;19.60;99.90
15615;DHT22;7907;51.368;6.730;2022-07-10T12:53:27;20.90;99.90
15615;DHT22;7907;51.368;6.730;2022-07-10T12:56:36;21.10;99.90
15615;DHT22;7907;51.368;6.730;2022-07-10T13:03:22;20.80;99.90
15615;DHT22;7907;51.368;6.730;2022-07-10T13:10:24;20.60;99.90
15615;DHT22;7907;51.368;6.730;2022-07-10T13:27:15;23.10;99.90
15615;DHT22;7907;51.368;6.730;2022-07-10T13:29:59;23.20;99.90
15615;DHT22;7907;51.368;6.730;2022-07-10T13:32:49;23.40;99.90
15615;DHT22;7907;51.368;6.730;2022-07-10T13:35:18;23.40;99.90
15615;DHT22;7907;51.368;6.730;2022-07-10T13:37:53;22.90;99.90
15615;DHT22;7907;51.368;6.730;2022-07-10T13:40:30;22.50;99.90
15615;DHT22;7907;51.368;6.730;2022-07-10T13:43:18;22.30;99.90
15615;DHT22;7907;51.368;6.730;2022-07-10T13:49:35;21.80;99.90
15615;DHT22;7907;51.368;6.730;2022-07-10T13:52:30;21.80;99.90
15615;DHT22;7907;51.368;6.730;2022-07-10T13:55:01;21.70;99.90
15615;DHT22;7907;51.368;6.730;2022-07-10T13:57:36;21.60;99.90
15615;DHT22;7907;51.368;6.730;2022-07-10T14:00:19;21.70;99.90
15615;DHT22;7907;51.368;6.730;2022-07-10T14:02:46;21.80;99.90
15615;DHT22;7907;51.368;6.730;2022-07-10T14:05:25;21.70;99.90
15615;DHT22;7907;51.368;6.730;2022-07-10T14:08:01;21.50;99.90
15615;DHT22;7907;51.368;6.730;2022-07-10T14:10:29;21.40;99.90
15615;DHT22;7907;51.368;6.730;2022-07-10T14:13:02;21.20;99.90
15615;DHT22;7907;51.368;6.730;2022-07-10T14:15:50;21.10;99.90
15615;DHT22;7907;51.368;6.730;2022-07-10T14:19:05;21.00;99.90
15615;DHT22;7907;51.368;6.730;2022-07-10T14:21:48;20.90;99.90
15615;DHT22;7907;51.368;6.730;2022-07-10T14:24:25;20.90;99.90
15615;DHT22;7907;51.368;6.730;2022-07-10T14:27:21;20.90;99.90
15615;DHT22;7907;51.368;6.730;2022-07-10T14:36:33;20.90;99.90
15615;DHT22;7907;51.368;6.730;2022-07-10T14:39:10;20.90;99.90
15615;DHT22;7907;51.368;6.730;2022-07-10T14:41:46;20.90;99.90
15615;DHT22;7907;51.368;6.730;2022-07-10T14:44:59;21.00;99.90
15615;DHT22;7907;51.368;6.730;2022-07-10T14:50:45;21.10;99.90
15615;DHT22;7907;51.368;6.730;2022-07-10T14:57:09;21.30;99.90
15615;DHT22;7907;51.368;6.730;2022-07-10T14:59:55;21.50;99.90
15615;DHT22;7907;51.368;6.730;2022-07-10T15:02:47;21.70;99.90
15615;DHT22;7907;51.368;6.730;2022-07-10T15:08:48;22.90;99.90
15615;DHT22;7907;51.368;6.730;2022-07-10T15:11:25;22.90;99.90
15615;DHT22;7907;51.368;6.730;2022-07-10T15:14:10;22.90;99.90
15615;DHT22;7907;51.368;6.730;2022-07-10T15:17:11;22.60;99.90
15615;DHT22;7907;51.368;6.730;2022-07-10T15:19:40;22.40;99.90
15615;DHT22;7907;51.368;6.730;2022-07-10T15:22:16;22.30;99.90
15615;DHT22;7907;51.368;6.730;2022-07-10T15:28:01;22.00;99.90
15615;DHT22;7907;51.368;6.730;2022-07-10T16:27:45;21.80;99.90
15615;DHT22;7907;51.368;6.730;2022-07-10T16:41:03;21.10;99.90
15615;DHT22;7907;51.368;6.730;2022-07-10T16:47:21;21.00;99.90
15615;DHT22;7907;51.368;6.730;2022-07-10T16:50:09;20.90;99.90
15615;DHT22;7907;51.368;6.730;2022-07-10T16:52:40;20.90;99.90
15615;DHT22;7907;51.368;6.730;2022-07-10T17:03:24;20.90;99.90
15615;DHT22;7907;51.368;6.730;2022-07-10T17:08:53;20.90;99.90
15615;DHT22;7907;51.368;6.730;2022-07-10T17:22:11;20.60;99.90
15615;DHT22;7907;51.368;6.730;2022-07-10T17:39:13;20.70;99.90
15615;DHT22;7907;51.368;6.730;2022-07-10T17:45:22;20.60;99.90
15615;DHT22;7907;51.368;6.730;2022-07-10T17:51:17;20.70;99.90
15615;DHT22;7907;51.368;6.730;2022-07-10T17:57:06;20.60;99.90
15615;DHT22;7907;51.368;6.730;2022-07-10T18:03:02;20.70;99.90
15615;DHT22;7907;51.368;6.730;2022-07-10T18:05:42;20.70;99.90
15615;DHT22;7907;51.368;6.730;2022-07-10T18:28:53;20.80;99.90
15615;DHT22;7907;51.368;6.730;2022-07-10T18:43:37;20.90;99.90
15615;DHT22;7907;51.368;6.730;2022-07-10T18:49:59;20.90;99.90
15615;DHT22;7907;51.368;6.730;2022-07-10T18:52:41;21.00;99.90
15615;DHT22;7907;51.368;6.730;2022-07-10T19:25:16;20.70;99.90
15615;DHT22;7907;51.368;6.730;2022-07-10T19:27:52;20.70;99.90
15615;DHT22;7907;51.368;6.730;2022-07-10T21:21:39;20.20;99.90
15615;DHT22;7907;51.368;6.730;2022-07-10T21:44:54;20.10;99.90
15615;DHT22;7907;51.368;6.730;2022-07-10T22:44:44;19.40;99.90
15615;DHT22;7907;51.368;6.730;2022-07-10T23:04:54;19.30;99.90
15615;DHT22;7907;51.368;6.730;2022-07-10T23:21:01;19.10;99.90
15615;DHT22;7907;51.368;6.730;2022-07-10T23:31:02;19.00;99.90
15615;DHT22;7907;51.368;6.730;2022-07-10T23:47:13;19.10;99.90
